Pagrindinis puslapis
METAR-TAF:

METAR-TAF

Oro uostai :

Liepojos tarptautinis oro uostas

Liepoja, Latvija

platuma: 56-31N, ilguma: 021-05E, Aukštis: 5 m

Dabartinis oras

Ataskaita buvo paskelbta 18 minutes, ne 06:50 UTC
Vėjas 5 kt iš Pietų/Pietryčių
Temperatūra -6°C
Drėgmė 100%
Slėgis 1012 hPa
Matomumas: 4600 m
rūkana

METAR: EVLA 230650Z AUTO 16005KT 4600 BR NCD M06/M06 Q1012

Laikas: 09:08 (07:08 UTC)

Prognozė

Ataskaita buvo paskelbta 2 valandos ir 6 minutes, ne 05:02 UTC
Prognozė galioja nuo 23 metu 06 UTC su 24 metu 06 UTC
Vėjas 7 kt iš Pietų/Pietryčių
Matomumas 10 km arba daugiau
Išsisklaidę debesys ne aukštis 3000 ft
Laikinai
nuo 23 metu 06 UTC su 23 metu 09 UTC
Matomumas: 3000 m
Su prošvaistėmis ne aukštis 1000 ft
sniegas, rūkana

TAF: EVLA 230502Z 2306/2406 16007KT 9999 SCT030 TEMPO 2306/2309 3000 -SN BR BKN010

Orai ataskaitas ir orų prognozės (METAR, TAF).

turimą stotys yra geltonos ir raudonos taškus žemėlapyje.

Perkelti pele per norėdami pamatyti stoties vardą.

Tada spustelėkite, norėdami matyti oro stebėjimo ir prognozės.

Norėdami pakeisti žemėlapį: spustelėkite ant žalios mygtukų su juodo kryžiaus žemyn,; žalią mygtuką su brūkšneliu, jei norite nutolinti; arba žalių rodyklių gretimoms žemėlapius.


METAR-TAF: